Terminal Aerodrome Forecast
Issued by NWS Houston/Galveston, TX

Home | Current Version | Previous Version | Text Only | Print | Product List | Glossary On
Versions: 1 2 3 4 5 6 7 8 9 10 11 12 13 14 15 16 17 18 19 20 21 22 23 24 25 26
000
FTUS44 KHGX 012050 AAB
TAFGLS
TAF AMD
KGLS 012050Z 0121/0218 12007KT 4SM BR VCTS BKN010 BKN030CB OVC045
     FM020200 11008KT P6SM VCSH OVC015
     FM020900 03010KT P6SM VCTS SCT009 BKN025CB
     FM021700 36015G21KT P6SM VCTS BKN007 BKN020CB=

USA.gov is the U.S. government's official web portal to all federal, state and local government web resources and services.